sensor_id;sensor_type;location;lat;lon;timestamp;temperature;humidity
31527;DHT22;18136;42.236;-73.040;2023-08-08T00:02:02;18.50;99.90
31527;DHT22;18136;42.236;-73.040;2023-08-08T00:04:28;18.60;99.90
31527;DHT22;18136;42.236;-73.040;2023-08-08T00:06:57;18.50;99.90
31527;DHT22;18136;42.236;-73.040;2023-08-08T00:09:23;18.50;99.90
31527;DHT22;18136;42.236;-73.040;2023-08-08T00:11:50;18.50;99.90
31527;DHT22;18136;42.236;-73.040;2023-08-08T00:14:16;18.50;99.90
31527;DHT22;18136;42.236;-73.040;2023-08-08T00:16:42;18.50;99.90
31527;DHT22;18136;42.236;-73.040;2023-08-08T00:19:08;18.50;99.90
31527;DHT22;18136;42.236;-73.040;2023-08-08T00:21:35;18.60;99.90
31527;DHT22;18136;42.236;-73.040;2023-08-08T00:24:01;18.60;99.90
31527;DHT22;18136;42.236;-73.040;2023-08-08T00:26:27;18.50;99.90
31527;DHT22;18136;42.236;-73.040;2023-08-08T00:28:53;18.50;99.90
31527;DHT22;18136;42.236;-73.040;2023-08-08T00:31:19;18.50;99.90
31527;DHT22;18136;42.236;-73.040;2023-08-08T00:33:45;18.40;99.90
31527;DHT22;18136;42.236;-73.040;2023-08-08T00:36:12;18.50;99.90
31527;DHT22;18136;42.236;-73.040;2023-08-08T00:38:38;18.40;99.90
31527;DHT22;18136;42.236;-73.040;2023-08-08T00:41:04;18.50;99.90
31527;DHT22;18136;42.236;-73.040;2023-08-08T00:43:30;18.50;99.90
31527;DHT22;18136;42.236;-73.040;2023-08-08T00:45:59;18.60;99.90
31527;DHT22;18136;42.236;-73.040;2023-08-08T00:48:26;18.50;99.90
31527;DHT22;18136;42.236;-73.040;2023-08-08T00:50:53;18.50;99.90
31527;DHT22;18136;42.236;-73.040;2023-08-08T00:53:19;18.60;99.90
31527;DHT22;18136;42.236;-73.040;2023-08-08T00:55:46;18.50;99.90
31527;DHT22;18136;42.236;-73.040;2023-08-08T00:58:13;18.60;99.90
31527;DHT22;18136;42.236;-73.040;2023-08-08T01:00:39;18.50;99.90
31527;DHT22;18136;42.236;-73.040;2023-08-08T01:03:05;18.50;99.90
31527;DHT22;18136;42.236;-73.040;2023-08-08T01:05:36;18.50;99.90
31527;DHT22;18136;42.236;-73.040;2023-08-08T01:08:05;18.50;99.90
31527;DHT22;18136;42.236;-73.040;2023-08-08T01:10:42;18.50;99.90
31527;DHT22;18136;42.236;-73.040;2023-08-08T01:13:21;18.40;99.90
31527;DHT22;18136;42.236;-73.040;2023-08-08T01:15:49;18.50;99.90
31527;DHT22;18136;42.236;-73.040;2023-08-08T01:18:16;18.50;99.90
31527;DHT22;18136;42.236;-73.040;2023-08-08T01:20:43;18.50;99.90
31527;DHT22;18136;42.236;-73.040;2023-08-08T01:26:21;18.50;99.90
31527;DHT22;18136;42.236;-73.040;2023-08-08T01:28:53;18.50;99.90
31527;DHT22;18136;42.236;-73.040;2023-08-08T01:31:20;18.50;99.90
31527;DHT22;18136;42.236;-73.040;2023-08-08T01:33:47;18.50;99.90
31527;DHT22;18136;42.236;-73.040;2023-08-08T01:36:24;18.40;99.90
31527;DHT22;18136;42.236;-73.040;2023-08-08T01:38:53;18.60;99.90
31527;DHT22;18136;42.236;-73.040;2023-08-08T01:41:22;18.40;99.90
31527;DHT22;18136;42.236;-73.040;2023-08-08T01:43:49;18.50;99.90
31527;DHT22;18136;42.236;-73.040;2023-08-08T01:46:16;18.50;99.90
31527;DHT22;18136;42.236;-73.040;2023-08-08T01:48:46;18.40;99.90
31527;DHT22;18136;42.236;-73.040;2023-08-08T01:51:12;18.40;99.90
31527;DHT22;18136;42.236;-73.040;2023-08-08T01:53:38;18.40;99.90
31527;DHT22;18136;42.236;-73.040;2023-08-08T01:56:04;18.40;99.90
31527;DHT22;18136;42.236;-73.040;2023-08-08T01:58:32;18.40;99.90
31527;DHT22;18136;42.236;-73.040;2023-08-08T02:00:58;18.60;99.90
31527;DHT22;18136;42.236;-73.040;2023-08-08T02:03:24;18.50;99.90
31527;DHT22;18136;42.236;-73.040;2023-08-08T02:05:50;18.40;99.90
31527;DHT22;18136;42.236;-73.040;2023-08-08T02:08:16;18.40;99.90
31527;DHT22;18136;42.236;-73.040;2023-08-08T02:10:43;18.40;99.90
31527;DHT22;18136;42.236;-73.040;2023-08-08T02:13:10;18.50;99.90
31527;DHT22;18136;42.236;-73.040;2023-08-08T02:15:36;18.40;99.90
31527;DHT22;18136;42.236;-73.040;2023-08-08T02:18:02;18.40;99.90
31527;DHT22;18136;42.236;-73.040;2023-08-08T02:20:29;18.40;99.90
31527;DHT22;18136;42.236;-73.040;2023-08-08T02:22:56;18.40;99.90
31527;DHT22;18136;42.236;-73.040;2023-08-08T02:25:22;18.40;99.90
31527;DHT22;18136;42.236;-73.040;2023-08-08T02:27:49;18.50;99.90
31527;DHT22;18136;42.236;-73.040;2023-08-08T02:30:15;18.50;99.90
31527;DHT22;18136;42.236;-73.040;2023-08-08T02:32:43;18.50;99.90
31527;DHT22;18136;42.236;-73.040;2023-08-08T02:35:09;18.50;99.90
31527;DHT22;18136;42.236;-73.040;2023-08-08T02:37:35;18.60;99.90
31527;DHT22;18136;42.236;-73.040;2023-08-08T02:40:02;18.50;99.90
31527;DHT22;18136;42.236;-73.040;2023-08-08T02:42:28;18.50;99.90
31527;DHT22;18136;42.236;-73.040;2023-08-08T02:44:54;18.40;99.90
31527;DHT22;18136;42.236;-73.040;2023-08-08T02:47:20;18.40;99.90
31527;DHT22;18136;42.236;-73.040;2023-08-08T02:49:47;18.50;99.90
31527;DHT22;18136;42.236;-73.040;2023-08-08T02:52:13;18.40;99.90
31527;DHT22;18136;42.236;-73.040;2023-08-08T02:54:39;18.50;99.90
31527;DHT22;18136;42.236;-73.040;2023-08-08T02:57:05;18.40;99.90
31527;DHT22;18136;42.236;-73.040;2023-08-08T02:59:31;18.50;99.90
31527;DHT22;18136;42.236;-73.040;2023-08-08T03:01:57;18.50;99.90
31527;DHT22;18136;42.236;-73.040;2023-08-08T03:04:23;18.50;99.90
31527;DHT22;18136;42.236;-73.040;2023-08-08T03:06:50;18.50;99.90
31527;DHT22;18136;42.236;-73.040;2023-08-08T03:09:17;18.60;99.90
31527;DHT22;18136;42.236;-73.040;2023-08-08T03:11:43;18.50;99.90
31527;DHT22;18136;42.236;-73.040;2023-08-08T03:14:42;18.50;99.90
31527;DHT22;18136;42.236;-73.040;2023-08-08T03:17:08;18.50;99.90
31527;DHT22;18136;42.236;-73.040;2023-08-08T03:19:34;18.60;99.90
31527;DHT22;18136;42.236;-73.040;2023-08-08T03:22:00;18.50;99.90
31527;DHT22;18136;42.236;-73.040;2023-08-08T03:24:26;18.50;99.90
31527;DHT22;18136;42.236;-73.040;2023-08-08T03:26:52;18.50;99.90
31527;DHT22;18136;42.236;-73.040;2023-08-08T03:29:18;18.60;99.90
31527;DHT22;18136;42.236;-73.040;2023-08-08T03:31:44;18.60;99.90
31527;DHT22;18136;42.236;-73.040;2023-08-08T03:34:11;18.50;99.90
31527;DHT22;18136;42.236;-73.040;2023-08-08T03:36:37;18.50;99.90
31527;DHT22;18136;42.236;-73.040;2023-08-08T03:39:03;18.60;99.90
31527;DHT22;18136;42.236;-73.040;2023-08-08T03:41:29;18.60;99.90
31527;DHT22;18136;42.236;-73.040;2023-08-08T03:43:56;18.60;99.90
31527;DHT22;18136;42.236;-73.040;2023-08-08T03:46:22;18.60;99.90
31527;DHT22;18136;42.236;-73.040;2023-08-08T03:48:48;18.60;99.90
31527;DHT22;18136;42.236;-73.040;2023-08-08T03:51:14;18.70;99.90
31527;DHT22;18136;42.236;-73.040;2023-08-08T03:53:41;18.60;99.90
31527;DHT22;18136;42.236;-73.040;2023-08-08T03:56:08;18.60;99.90
31527;DHT22;18136;42.236;-73.040;2023-08-08T03:58:34;18.70;99.90
31527;DHT22;18136;42.236;-73.040;2023-08-08T04:01:00;18.70;99.90
31527;DHT22;18136;42.236;-73.040;2023-08-08T04:03:27;18.70;99.90
31527;DHT22;18136;42.236;-73.040;2023-08-08T04:05:53;18.70;99.90
31527;DHT22;18136;42.236;-73.040;2023-08-08T04:08:19;18.80;99.90
31527;DHT22;18136;42.236;-73.040;2023-08-08T04:10:47;18.70;99.90
31527;DHT22;18136;42.236;-73.040;2023-08-08T04:13:13;18.70;99.90
31527;DHT22;18136;42.236;-73.040;2023-08-08T04:15:40;18.80;99.90
31527;DHT22;18136;42.236;-73.040;2023-08-08T04:18:07;18.80;99.90
31527;DHT22;18136;42.236;-73.040;2023-08-08T04:20:34;18.80;99.90
31527;DHT22;18136;42.236;-73.040;2023-08-08T04:23:00;18.90;99.90
31527;DHT22;18136;42.236;-73.040;2023-08-08T04:25:26;18.70;99.90
31527;DHT22;18136;42.236;-73.040;2023-08-08T04:27:53;18.80;99.90
31527;DHT22;18136;42.236;-73.040;2023-08-08T04:30:19;18.70;99.90
31527;DHT22;18136;42.236;-73.040;2023-08-08T04:32:45;18.80;99.90
31527;DHT22;18136;42.236;-73.040;2023-08-08T04:35:11;18.70;99.90
31527;DHT22;18136;42.236;-73.040;2023-08-08T04:37:37;18.80;99.90
31527;DHT22;18136;42.236;-73.040;2023-08-08T04:40:04;18.80;99.90
31527;DHT22;18136;42.236;-73.040;2023-08-08T04:42:30;18.80;99.90
31527;DHT22;18136;42.236;-73.040;2023-08-08T04:44:58;18.70;99.90
31527;DHT22;18136;42.236;-73.040;2023-08-08T04:47:27;18.80;99.90
31527;DHT22;18136;42.236;-73.040;2023-08-08T04:49:55;18.80;99.90
31527;DHT22;18136;42.236;-73.040;2023-08-08T04:52:22;18.70;99.90
31527;DHT22;18136;42.236;-73.040;2023-08-08T04:54:48;18.80;99.90
31527;DHT22;18136;42.236;-73.040;2023-08-08T04:57:14;18.70;99.90
31527;DHT22;18136;42.236;-73.040;2023-08-08T04:59:40;18.80;99.90
31527;DHT22;18136;42.236;-73.040;2023-08-08T05:02:06;18.80;99.90
31527;DHT22;18136;42.236;-73.040;2023-08-08T05:04:32;18.70;99.90
31527;DHT22;18136;42.236;-73.040;2023-08-08T05:06:58;18.80;99.90
31527;DHT22;18136;42.236;-73.040;2023-08-08T05:09:25;18.70;99.90
31527;DHT22;18136;42.236;-73.040;2023-08-08T05:11:52;18.60;99.90
31527;DHT22;18136;42.236;-73.040;2023-08-08T05:14:19;18.70;99.90
31527;DHT22;18136;42.236;-73.040;2023-08-08T05:16:45;18.60;99.90
31527;DHT22;18136;42.236;-73.040;2023-08-08T05:19:12;18.60;99.90
31527;DHT22;18136;42.236;-73.040;2023-08-08T05:21:38;18.60;99.90
31527;DHT22;18136;42.236;-73.040;2023-08-08T05:24:04;18.60;99.90
31527;DHT22;18136;42.236;-73.040;2023-08-08T05:26:30;18.70;99.90
31527;DHT22;18136;42.236;-73.040;2023-08-08T05:28:57;18.60;99.90
31527;DHT22;18136;42.236;-73.040;2023-08-08T05:31:23;18.60;99.90
31527;DHT22;18136;42.236;-73.040;2023-08-08T05:33:49;18.60;99.90
31527;DHT22;18136;42.236;-73.040;2023-08-08T05:36:15;18.60;99.90
31527;DHT22;18136;42.236;-73.040;2023-08-08T05:38:42;18.60;99.90
31527;DHT22;18136;42.236;-73.040;2023-08-08T05:41:08;18.50;99.90
31527;DHT22;18136;42.236;-73.040;2023-08-08T05:43:34;18.50;99.90
31527;DHT22;18136;42.236;-73.040;2023-08-08T05:46:02;18.60;99.90
31527;DHT22;18136;42.236;-73.040;2023-08-08T05:48:28;18.60;99.90
31527;DHT22;18136;42.236;-73.040;2023-08-08T05:50:54;18.50;99.90
31527;DHT22;18136;42.236;-73.040;2023-08-08T05:53:24;18.50;99.90
31527;DHT22;18136;42.236;-73.040;2023-08-08T05:55:50;18.50;99.90
31527;DHT22;18136;42.236;-73.040;2023-08-08T05:58:16;18.50;99.90
31527;DHT22;18136;42.236;-73.040;2023-08-08T06:00:42;18.60;99.90
31527;DHT22;18136;42.236;-73.040;2023-08-08T06:03:08;18.50;99.90
31527;DHT22;18136;42.236;-73.040;2023-08-08T06:05:34;18.40;99.90
31527;DHT22;18136;42.236;-73.040;2023-08-08T06:08:00;18.30;99.90
31527;DHT22;18136;42.236;-73.040;2023-08-08T06:10:26;18.40;99.90
31527;DHT22;18136;42.236;-73.040;2023-08-08T06:12:53;18.20;99.90
31527;DHT22;18136;42.236;-73.040;2023-08-08T06:15:19;18.30;99.90
31527;DHT22;18136;42.236;-73.040;2023-08-08T06:17:45;18.30;99.90
31527;DHT22;18136;42.236;-73.040;2023-08-08T06:20:11;18.30;99.90
31527;DHT22;18136;42.236;-73.040;2023-08-08T06:22:38;18.30;99.90
31527;DHT22;18136;42.236;-73.040;2023-08-08T06:25:05;18.30;99.90
31527;DHT22;18136;42.236;-73.040;2023-08-08T06:27:31;18.20;99.90
31527;DHT22;18136;42.236;-73.040;2023-08-08T06:29:57;18.30;99.90
31527;DHT22;18136;42.236;-73.040;2023-08-08T06:32:24;18.20;99.90
31527;DHT22;18136;42.236;-73.040;2023-08-08T06:34:50;18.20;99.90
31527;DHT22;18136;42.236;-73.040;2023-08-08T06:37:16;18.20;99.90
31527;DHT22;18136;42.236;-73.040;2023-08-08T06:39:42;18.20;99.90
31527;DHT22;18136;42.236;-73.040;2023-08-08T06:42:09;18.20;99.90
31527;DHT22;18136;42.236;-73.040;2023-08-08T06:44:42;18.30;99.90
31527;DHT22;18136;42.236;-73.040;2023-08-08T06:47:08;18.20;99.90
31527;DHT22;18136;42.236;-73.040;2023-08-08T06:49:35;18.20;99.90
31527;DHT22;18136;42.236;-73.040;2023-08-08T06:52:01;18.30;99.90
31527;DHT22;18136;42.236;-73.040;2023-08-08T06:54:27;18.20;99.90
31527;DHT22;18136;42.236;-73.040;2023-08-08T06:56:54;18.20;99.90
31527;DHT22;18136;42.236;-73.040;2023-08-08T06:59:23;18.30;99.90
31527;DHT22;18136;42.236;-73.040;2023-08-08T07:01:50;18.20;99.90
31527;DHT22;18136;42.236;-73.040;2023-08-08T07:04:16;18.20;99.90
31527;DHT22;18136;42.236;-73.040;2023-08-08T07:06:44;18.10;99.90
31527;DHT22;18136;42.236;-73.040;2023-08-08T07:09:11;18.10;99.90
31527;DHT22;18136;42.236;-73.040;2023-08-08T07:11:37;18.10;99.90
31527;DHT22;18136;42.236;-73.040;2023-08-08T07:14:04;18.00;99.90
31527;DHT22;18136;42.236;-73.040;2023-08-08T07:16:30;18.00;99.90
31527;DHT22;18136;42.236;-73.040;2023-08-08T07:18:56;18.00;99.90
31527;DHT22;18136;42.236;-73.040;2023-08-08T07:21:22;17.90;99.90
31527;DHT22;18136;42.236;-73.040;2023-08-08T07:23:48;18.00;99.90
31527;DHT22;18136;42.236;-73.040;2023-08-08T07:26:14;17.90;99.90
31527;DHT22;18136;42.236;-73.040;2023-08-08T07:28:40;17.90;99.90
31527;DHT22;18136;42.236;-73.040;2023-08-08T07:31:06;17.90;99.90
31527;DHT22;18136;42.236;-73.040;2023-08-08T07:33:32;17.90;99.90
31527;DHT22;18136;42.236;-73.040;2023-08-08T07:35:59;17.80;99.90
31527;DHT22;18136;42.236;-73.040;2023-08-08T07:38:25;17.90;99.90
31527;DHT22;18136;42.236;-73.040;2023-08-08T07:40:51;17.80;99.90
31527;DHT22;18136;42.236;-73.040;2023-08-08T07:43:17;17.80;99.90
31527;DHT22;18136;42.236;-73.040;2023-08-08T07:45:43;17.80;99.90
31527;DHT22;18136;42.236;-73.040;2023-08-08T07:48:09;17.70;99.90
31527;DHT22;18136;42.236;-73.040;2023-08-08T07:50:35;17.80;99.90
31527;DHT22;18136;42.236;-73.040;2023-08-08T07:53:01;17.70;99.90
31527;DHT22;18136;42.236;-73.040;2023-08-08T07:55:28;17.70;99.90
31527;DHT22;18136;42.236;-73.040;2023-08-08T07:57:54;17.70;99.90
31527;DHT22;18136;42.236;-73.040;2023-08-08T08:00:20;17.70;99.90
31527;DHT22;18136;42.236;-73.040;2023-08-08T08:02:48;17.60;99.90
31527;DHT22;18136;42.236;-73.040;2023-08-08T08:05:15;17.60;99.90
31527;DHT22;18136;42.236;-73.040;2023-08-08T08:07:41;17.60;99.90
31527;DHT22;18136;42.236;-73.040;2023-08-08T08:10:09;17.50;99.90
31527;DHT22;18136;42.236;-73.040;2023-08-08T08:12:39;17.50;99.90
31527;DHT22;18136;42.236;-73.040;2023-08-08T08:15:07;17.50;99.90
31527;DHT22;18136;42.236;-73.040;2023-08-08T08:17:34;17.50;99.90
31527;DHT22;18136;42.236;-73.040;2023-08-08T08:20:00;17.60;99.90
31527;DHT22;18136;42.236;-73.040;2023-08-08T08:22:31;17.50;99.90
31527;DHT22;18136;42.236;-73.040;2023-08-08T08:24:57;17.50;99.90
31527;DHT22;18136;42.236;-73.040;2023-08-08T08:27:23;17.50;99.90
31527;DHT22;18136;42.236;-73.040;2023-08-08T08:29:49;17.40;99.90
31527;DHT22;18136;42.236;-73.040;2023-08-08T08:32:16;17.50;99.90
31527;DHT22;18136;42.236;-73.040;2023-08-08T08:34:42;17.50;99.90
31527;DHT22;18136;42.236;-73.040;2023-08-08T08:37:10;17.40;99.90
31527;DHT22;18136;42.236;-73.040;2023-08-08T08:39:36;17.50;99.90
31527;DHT22;18136;42.236;-73.040;2023-08-08T08:42:02;17.40;99.90
31527;DHT22;18136;42.236;-73.040;2023-08-08T08:44:31;17.40;99.90
31527;DHT22;18136;42.236;-73.040;2023-08-08T08:47:00;17.40;99.90
31527;DHT22;18136;42.236;-73.040;2023-08-08T08:49:30;17.40;99.90
31527;DHT22;18136;42.236;-73.040;2023-08-08T08:52:00;17.50;99.90
31527;DHT22;18136;42.236;-73.040;2023-08-08T08:54:32;17.40;99.90
31527;DHT22;18136;42.236;-73.040;2023-08-08T08:56:59;17.50;99.90
31527;DHT22;18136;42.236;-73.040;2023-08-08T08:59:25;17.40;99.90
31527;DHT22;18136;42.236;-73.040;2023-08-08T09:01:51;17.40;99.90
31527;DHT22;18136;42.236;-73.040;2023-08-08T09:04:19;17.40;99.90
31527;DHT22;18136;42.236;-73.040;2023-08-08T09:06:47;17.40;99.90
31527;DHT22;18136;42.236;-73.040;2023-08-08T09:09:14;17.40;99.90
31527;DHT22;18136;42.236;-73.040;2023-08-08T09:11:45;17.40;99.90
31527;DHT22;18136;42.236;-73.040;2023-08-08T09:14:23;17.40;99.90
31527;DHT22;18136;42.236;-73.040;2023-08-08T09:16:50;17.40;99.90
31527;DHT22;18136;42.236;-73.040;2023-08-08T09:19:21;17.40;99.90
31527;DHT22;18136;42.236;-73.040;2023-08-08T09:21:48;17.40;99.90
31527;DHT22;18136;42.236;-73.040;2023-08-08T09:24:15;17.40;99.90
31527;DHT22;18136;42.236;-73.040;2023-08-08T09:26:41;17.40;99.90
31527;DHT22;18136;42.236;-73.040;2023-08-08T09:29:12;17.40;99.90
31527;DHT22;18136;42.236;-73.040;2023-08-08T09:31:39;17.40;99.90
31527;DHT22;18136;42.236;-73.040;2023-08-08T09:34:05;17.40;99.90
31527;DHT22;18136;42.236;-73.040;2023-08-08T09:36:32;17.40;99.90
31527;DHT22;18136;42.236;-73.040;2023-08-08T09:38:59;17.40;99.90
31527;DHT22;18136;42.236;-73.040;2023-08-08T09:41:25;17.40;99.90
31527;DHT22;18136;42.236;-73.040;2023-08-08T09:43:53;17.50;99.90
31527;DHT22;18136;42.236;-73.040;2023-08-08T09:46:20;17.50;99.90
31527;DHT22;18136;42.236;-73.040;2023-08-08T09:48:47;17.40;99.90
31527;DHT22;18136;42.236;-73.040;2023-08-08T09:51:13;17.50;99.90
31527;DHT22;18136;42.236;-73.040;2023-08-08T09:53:41;17.40;99.90
31527;DHT22;18136;42.236;-73.040;2023-08-08T09:56:08;17.40;99.90
31527;DHT22;18136;42.236;-73.040;2023-08-08T09:58:34;17.40;99.90
31527;DHT22;18136;42.236;-73.040;2023-08-08T10:01:00;17.40;99.90
31527;DHT22;18136;42.236;-73.040;2023-08-08T10:03:27;17.40;99.90
31527;DHT22;18136;42.236;-73.040;2023-08-08T10:05:54;17.40;99.90
31527;DHT22;18136;42.236;-73.040;2023-08-08T10:08:20;17.40;99.90
31527;DHT22;18136;42.236;-73.040;2023-08-08T10:10:48;17.40;99.90
31527;DHT22;18136;42.236;-73.040;2023-08-08T10:13:26;17.40;99.90
31527;DHT22;18136;42.236;-73.040;2023-08-08T10:16:22;17.40;99.90
31527;DHT22;18136;42.236;-73.040;2023-08-08T10:18:56;17.50;99.90
31527;DHT22;18136;42.236;-73.040;2023-08-08T10:21:24;17.40;99.90
31527;DHT22;18136;42.236;-73.040;2023-08-08T10:24:19;17.50;99.90
31527;DHT22;18136;42.236;-73.040;2023-08-08T10:26:53;17.50;99.90
31527;DHT22;18136;42.236;-73.040;2023-08-08T10:29:20;17.50;99.90
31527;DHT22;18136;42.236;-73.040;2023-08-08T10:32:21;17.40;99.90
31527;DHT22;18136;42.236;-73.040;2023-08-08T10:34:49;17.40;99.90
31527;DHT22;18136;42.236;-73.040;2023-08-08T10:37:17;17.50;99.90
31527;DHT22;18136;42.236;-73.040;2023-08-08T10:39:58;17.50;99.90
31527;DHT22;18136;42.236;-73.040;2023-08-08T10:42:27;17.50;99.90
31527;DHT22;18136;42.236;-73.040;2023-08-08T10:45:02;17.50;99.90
31527;DHT22;18136;42.236;-73.040;2023-08-08T10:47:34;17.50;99.90
31527;DHT22;18136;42.236;-73.040;2023-08-08T10:50:24;17.50;99.90
31527;DHT22;18136;42.236;-73.040;2023-08-08T10:55:27;17.50;99.90
31527;DHT22;18136;42.236;-73.040;2023-08-08T10:58:08;17.60;99.90
31527;DHT22;18136;42.236;-73.040;2023-08-08T11:00:39;17.50;99.90
31527;DHT22;18136;42.236;-73.040;2023-08-08T11:03:06;17.50;99.90
31527;DHT22;18136;42.236;-73.040;2023-08-08T11:05:34;17.60;99.90
31527;DHT22;18136;42.236;-73.040;2023-08-08T11:08:02;17.60;99.90
31527;DHT22;18136;42.236;-73.040;2023-08-08T11:10:30;17.50;99.90
31527;DHT22;18136;42.236;-73.040;2023-08-08T11:13:05;17.50;99.90
31527;DHT22;18136;42.236;-73.040;2023-08-08T11:15:35;17.50;99.90
31527;DHT22;18136;42.236;-73.040;2023-08-08T11:18:02;17.50;99.90
31527;DHT22;18136;42.236;-73.040;2023-08-08T11:20:34;17.60;99.90
31527;DHT22;18136;42.236;-73.040;2023-08-08T11:23:00;17.60;99.90
31527;DHT22;18136;42.236;-73.040;2023-08-08T11:25:29;17.60;99.90
31527;DHT22;18136;42.236;-73.040;2023-08-08T11:27:56;17.60;99.90
31527;DHT22;18136;42.236;-73.040;2023-08-08T11:30:24;17.70;99.90
31527;DHT22;18136;42.236;-73.040;2023-08-08T11:32:53;17.60;99.90
31527;DHT22;18136;42.236;-73.040;2023-08-08T11:35:24;17.60;99.90
31527;DHT22;18136;42.236;-73.040;2023-08-08T11:37:52;17.60;99.90
31527;DHT22;18136;42.236;-73.040;2023-08-08T11:40:20;17.60;99.90
31527;DHT22;18136;42.236;-73.040;2023-08-08T11:42:47;17.60;99.90
31527;DHT22;18136;42.236;-73.040;2023-08-08T11:45:16;17.70;99.90
31527;DHT22;18136;42.236;-73.040;2023-08-08T11:47:42;17.70;99.90
31527;DHT22;18136;42.236;-73.040;2023-08-08T11:50:10;17.70;99.90
31527;DHT22;18136;42.236;-73.040;2023-08-08T11:52:41;17.60;99.90
31527;DHT22;18136;42.236;-73.040;2023-08-08T11:55:11;17.70;99.90
31527;DHT22;18136;42.236;-73.040;2023-08-08T11:57:40;17.70;99.90
31527;DHT22;18136;42.236;-73.040;2023-08-08T12:00:11;17.70;99.90
31527;DHT22;18136;42.236;-73.040;2023-08-08T12:02:43;17.70;99.90
31527;DHT22;18136;42.236;-73.040;2023-08-08T12:05:11;17.70;99.90
31527;DHT22;18136;42.236;-73.040;2023-08-08T12:07:38;17.70;99.90
31527;DHT22;18136;42.236;-73.040;2023-08-08T12:10:17;17.70;99.90
31527;DHT22;18136;42.236;-73.040;2023-08-08T12:12:44;17.70;99.90
31527;DHT22;18136;42.236;-73.040;2023-08-08T12:15:11;17.80;99.90
31527;DHT22;18136;42.236;-73.040;2023-08-08T12:17:37;17.80;99.90
31527;DHT22;18136;42.236;-73.040;2023-08-08T12:20:05;17.90;99.90
31527;DHT22;18136;42.236;-73.040;2023-08-08T12:22:31;18.00;99.90
31527;DHT22;18136;42.236;-73.040;2023-08-08T12:24:58;18.00;99.90
31527;DHT22;18136;42.236;-73.040;2023-08-08T12:27:24;18.00;99.90
31527;DHT22;18136;42.236;-73.040;2023-08-08T12:29:50;18.00;99.90
31527;DHT22;18136;42.236;-73.040;2023-08-08T12:32:19;18.00;99.90
31527;DHT22;18136;42.236;-73.040;2023-08-08T12:34:46;18.10;99.90
31527;DHT22;18136;42.236;-73.040;2023-08-08T12:37:12;18.10;99.90
31527;DHT22;18136;42.236;-73.040;2023-08-08T12:39:38;18.20;99.90
31527;DHT22;18136;42.236;-73.040;2023-08-08T12:42:04;18.20;99.90
31527;DHT22;18136;42.236;-73.040;2023-08-08T12:44:30;18.30;99.90
31527;DHT22;18136;42.236;-73.040;2023-08-08T12:46:56;18.40;99.90
31527;DHT22;18136;42.236;-73.040;2023-08-08T12:49:23;18.50;99.90
31527;DHT22;18136;42.236;-73.040;2023-08-08T12:51:50;18.60;99.90
31527;DHT22;18136;42.236;-73.040;2023-08-08T12:54:17;18.60;99.90
31527;DHT22;18136;42.236;-73.040;2023-08-08T12:56:43;18.60;99.90
31527;DHT22;18136;42.236;-73.040;2023-08-08T12:59:09;18.80;99.90
31527;DHT22;18136;42.236;-73.040;2023-08-08T13:01:36;18.80;99.90
31527;DHT22;18136;42.236;-73.040;2023-08-08T13:04:02;18.90;99.90
31527;DHT22;18136;42.236;-73.040;2023-08-08T13:06:30;19.00;99.90
31527;DHT22;18136;42.236;-73.040;2023-08-08T13:08:56;19.10;99.90
31527;DHT22;18136;42.236;-73.040;2023-08-08T13:11:22;19.10;99.90
31527;DHT22;18136;42.236;-73.040;2023-08-08T13:13:48;19.10;99.90
31527;DHT22;18136;42.236;-73.040;2023-08-08T13:16:14;19.10;99.90
31527;DHT22;18136;42.236;-73.040;2023-08-08T13:18:40;19.20;99.90
31527;DHT22;18136;42.236;-73.040;2023-08-08T13:21:06;19.40;99.90
31527;DHT22;18136;42.236;-73.040;2023-08-08T13:23:33;19.40;99.90
31527;DHT22;18136;42.236;-73.040;2023-08-08T13:25:59;19.30;99.90
31527;DHT22;18136;42.236;-73.040;2023-08-08T13:28:25;19.20;99.90
31527;DHT22;18136;42.236;-73.040;2023-08-08T13:30:51;19.30;99.90
31527;DHT22;18136;42.236;-73.040;2023-08-08T13:33:17;19.20;99.90
31527;DHT22;18136;42.236;-73.040;2023-08-08T13:35:43;19.30;99.90
31527;DHT22;18136;42.236;-73.040;2023-08-08T13:38:10;19.20;99.90
31527;DHT22;18136;42.236;-73.040;2023-08-08T13:40:41;19.30;99.90
31527;DHT22;18136;42.236;-73.040;2023-08-08T13:43:07;19.20;99.90
31527;DHT22;18136;42.236;-73.040;2023-08-08T13:45:34;19.10;99.90
31527;DHT22;18136;42.236;-73.040;2023-08-08T13:48:00;19.10;99.90
31527;DHT22;18136;42.236;-73.040;2023-08-08T13:50:26;19.20;99.90
31527;DHT22;18136;42.236;-73.040;2023-08-08T13:52:54;19.50;99.90
31527;DHT22;18136;42.236;-73.040;2023-08-08T13:55:20;19.80;99.90
31527;DHT22;18136;42.236;-73.040;2023-08-08T13:57:46;20.00;99.90
31527;DHT22;18136;42.236;-73.040;2023-08-08T14:00:13;20.30;99.90
31527;DHT22;18136;42.236;-73.040;2023-08-08T14:02:40;20.50;99.90
31527;DHT22;18136;42.236;-73.040;2023-08-08T14:05:06;20.40;99.90
31527;DHT22;18136;42.236;-73.040;2023-08-08T14:07:34;20.50;99.90
31527;DHT22;18136;42.236;-73.040;2023-08-08T14:10:02;20.40;99.90
31527;DHT22;18136;42.236;-73.040;2023-08-08T14:12:30;20.50;99.90
31527;DHT22;18136;42.236;-73.040;2023-08-08T14:14:56;20.60;99.90
31527;DHT22;18136;42.236;-73.040;2023-08-08T14:17:22;20.70;99.90
31527;DHT22;18136;42.236;-73.040;2023-08-08T14:19:48;20.70;99.90
31527;DHT22;18136;42.236;-73.040;2023-08-08T14:22:14;20.70;99.90
31527;DHT22;18136;42.236;-73.040;2023-08-08T14:24:42;20.90;99.90
31527;DHT22;18136;42.236;-73.040;2023-08-08T14:27:10;21.00;99.90
31527;DHT22;18136;42.236;-73.040;2023-08-08T14:29:36;21.10;99.90
31527;DHT22;18136;42.236;-73.040;2023-08-08T14:32:02;21.10;99.90
31527;DHT22;18136;42.236;-73.040;2023-08-08T14:34:33;21.20;99.90
31527;DHT22;18136;42.236;-73.040;2023-08-08T14:37:00;21.10;99.90
31527;DHT22;18136;42.236;-73.040;2023-08-08T14:39:27;21.00;99.90
31527;DHT22;18136;42.236;-73.040;2023-08-08T14:41:54;20.90;99.90
31527;DHT22;18136;42.236;-73.040;2023-08-08T14:44:20;20.80;99.90
31527;DHT22;18136;42.236;-73.040;2023-08-08T14:46:46;20.70;99.90
31527;DHT22;18136;42.236;-73.040;2023-08-08T14:49:16;20.70;99.90
31527;DHT22;18136;42.236;-73.040;2023-08-08T14:51:42;20.80;99.90
31527;DHT22;18136;42.236;-73.040;2023-08-08T14:54:09;20.80;99.90
31527;DHT22;18136;42.236;-73.040;2023-08-08T14:56:35;20.90;99.90
31527;DHT22;18136;42.236;-73.040;2023-08-08T14:59:01;21.10;99.90
31527;DHT22;18136;42.236;-73.040;2023-08-08T15:01:28;21.10;99.90
31527;DHT22;18136;42.236;-73.040;2023-08-08T15:03:54;21.20;99.90
31527;DHT22;18136;42.236;-73.040;2023-08-08T15:06:22;21.20;99.90
31527;DHT22;18136;42.236;-73.040;2023-08-08T15:08:48;21.10;99.90
31527;DHT22;18136;42.236;-73.040;2023-08-08T15:11:16;21.00;99.90